createdAt,value
2019-02-12T00:00:13.825Z,5.42
2019-02-12T00:02:42.008Z,5.41
2019-02-12T00:05:10.199Z,5.44
2019-02-12T00:07:38.383Z,5.44
2019-02-12T00:10:06.950Z,5.40
2019-02-12T00:12:35.141Z,5.37
2019-02-12T00:15:03.712Z,5.35
2019-02-12T00:17:31.919Z,5.33
2019-02-12T00:20:00.144Z,5.30
2019-02-12T00:22:28.412Z,5.31
2019-02-12T00:24:56.591Z,5.33
2019-02-12T00:27:24.785Z,5.34
2019-02-12T00:29:52.966Z,5.33
2019-02-12T00:32:21.162Z,5.30
2019-02-12T00:34:49.343Z,5.26
2019-02-12T00:37:17.541Z,5.22
2019-02-12T00:39:45.728Z,5.21
2019-02-12T00:42:13.947Z,5.22
2019-02-12T00:44:42.126Z,5.19
2019-02-12T00:47:10.328Z,5.20
2019-02-12T00:49:38.516Z,5.18
2019-02-12T00:52:06.735Z,5.22
2019-02-12T00:54:34.944Z,5.25
2019-02-12T00:57:03.139Z,5.28
2019-02-12T00:59:31.328Z,5.33
2019-02-12T01:01:59.520Z,5.35
2019-02-12T01:04:27.724Z,5.34
2019-02-12T01:06:55.921Z,5.36
2019-02-12T01:09:24.127Z,5.37
2019-02-12T01:11:52.322Z,5.40
2019-02-12T01:14:20.501Z,5.45
2019-02-12T01:16:48.708Z,5.46
2019-02-12T01:19:16.895Z,5.47
2019-02-12T01:21:45.112Z,5.48
2019-02-12T01:24:13.296Z,5.48
2019-02-12T01:26:41.492Z,5.48
2019-02-12T01:29:09.680Z,5.49
2019-02-12T01:31:37.874Z,5.48
2019-02-12T01:34:06.081Z,5.46
2019-02-12T01:36:34.272Z,5.48
2019-02-12T01:39:02.462Z,5.49
2019-02-12T01:41:30.680Z,5.50
2019-02-12T01:43:58.909Z,5.49
2019-02-12T01:46:27.123Z,5.46
2019-02-12T01:48:55.316Z,5.48
2019-02-12T01:51:23.509Z,5.47
2019-02-12T01:53:51.687Z,5.45
2019-02-12T01:56:19.893Z,5.49
2019-02-12T01:58:48.076Z,5.49
2019-02-12T02:01:16.259Z,5.47
2019-02-12T02:03:44.462Z,5.48
2019-02-12T02:06:12.644Z,5.44
2019-02-12T02:08:40.857Z,5.44
2019-02-12T02:11:09.031Z,5.46
2019-02-12T02:13:37.222Z,5.46
2019-02-12T02:16:05.428Z,5.45
2019-02-12T02:18:33.674Z,5.47
2019-02-12T02:21:01.832Z,5.47
2019-02-12T02:23:30.025Z,5.45
2019-02-12T02:25:58.208Z,5.46
2019-02-12T02:28:26.401Z,5.43
2019-02-12T02:30:54.579Z,5.42
2019-02-12T02:33:22.803Z,5.44
2019-02-12T02:35:50.984Z,5.46
2019-02-12T02:38:19.176Z,5.50
2019-02-12T02:40:47.362Z,5.46
2019-02-12T02:43:15.562Z,5.44
2019-02-12T02:45:43.770Z,5.40
2019-02-12T02:48:11.966Z,5.36
2019-02-12T02:50:40.161Z,5.33
2019-02-12T02:53:08.367Z,5.31
2019-02-12T02:55:36.542Z,5.31
2019-02-12T02:58:04.738Z,5.34
2019-02-12T03:00:32.923Z,5.36
2019-02-12T03:03:01.119Z,5.37
2019-02-12T03:05:29.314Z,5.36
2019-02-12T03:07:57.512Z,5.35
2019-02-12T03:10:25.693Z,5.35
2019-02-12T03:12:53.900Z,5.36
2019-02-12T03:15:22.083Z,5.36
2019-02-12T03:17:50.280Z,5.36
2019-02-12T03:20:18.464Z,5.36
2019-02-12T03:22:46.657Z,5.36
2019-02-12T03:25:14.836Z,5.34
2019-02-12T03:27:43.028Z,5.32
2019-02-12T03:30:12.401Z,5.32
2019-02-12T03:32:40.934Z,5.31
2019-02-12T03:35:10.220Z,5.38
2019-02-12T03:37:38.416Z,5.41
2019-02-12T03:40:09.255Z,5.42
2019-02-12T03:42:37.430Z,5.43
2019-02-12T03:45:08.272Z,5.48
2019-02-12T03:47:36.469Z,5.48
2019-02-12T03:50:07.203Z,5.52
2019-02-12T03:52:35.393Z,5.54
2019-02-12T03:55:03.600Z,5.55
2019-02-12T03:57:31.808Z,5.53
2019-02-12T04:00:00.028Z,5.53
2019-02-12T04:02:28.233Z,5.56
2019-02-12T04:04:56.426Z,5.56
2019-02-12T04:07:24.635Z,5.59
2019-02-12T04:09:52.836Z,5.55
2019-02-12T04:12:21.024Z,5.53
2019-02-12T04:14:49.222Z,5.49
2019-02-12T04:17:17.419Z,5.44
2019-02-12T04:19:45.595Z,5.44
2019-02-12T04:22:22.321Z,5.44
2019-02-12T04:24:43.712Z,5.45
2019-02-12T04:27:11.922Z,5.43
2019-02-12T04:29:40.119Z,5.35
2019-02-12T04:32:08.296Z,5.30
2019-02-12T04:34:36.525Z,5.31
2019-02-12T04:37:04.702Z,5.31
2019-02-12T04:39:32.901Z,5.34
2019-02-12T04:42:01.078Z,5.36
2019-02-12T04:44:29.298Z,5.31
2019-02-12T04:46:57.478Z,5.27
2019-02-12T04:49:25.702Z,5.27
2019-02-12T04:51:53.909Z,5.27
2019-02-12T04:54:22.110Z,5.26
2019-02-12T04:56:50.330Z,5.24
2019-02-12T04:59:18.504Z,5.21
2019-02-12T05:01:46.711Z,5.18
2019-02-12T05:04:14.905Z,5.18
2019-02-12T05:06:43.097Z,5.18
2019-02-12T05:09:13.661Z,5.14
2019-02-12T05:11:44.772Z,5.10
2019-02-12T05:14:13.003Z,5.06
2019-02-12T05:16:41.199Z,5.04
2019-02-12T05:19:09.379Z,5.03
2019-02-12T05:21:37.573Z,5.03
2019-02-12T05:24:05.804Z,5.03
2019-02-12T05:26:33.986Z,5.06
2019-02-12T05:29:02.175Z,5.05
2019-02-12T05:31:30.375Z,5.06
2019-02-12T05:33:58.567Z,5.11
2019-02-12T05:36:26.780Z,5.13
2019-02-12T05:38:55.045Z,5.23
2019-02-12T05:41:23.260Z,5.29
2019-02-12T05:43:51.423Z,5.28
2019-02-12T05:46:19.648Z,5.33
2019-02-12T05:48:47.840Z,5.38
2019-02-12T05:51:16.031Z,5.43
2019-02-12T05:53:44.243Z,5.44
2019-02-12T05:56:12.442Z,5.45
2019-02-12T05:58:40.653Z,5.50
2019-02-12T06:01:08.844Z,5.50
2019-02-12T06:03:37.027Z,5.53
2019-02-12T06:06:05.246Z,5.58
2019-02-12T06:08:33.433Z,5.61
2019-02-12T06:11:01.659Z,5.63
2019-02-12T06:13:29.844Z,5.64
2019-02-12T06:15:58.078Z,5.65
2019-02-12T06:18:26.250Z,5.62
2019-02-12T06:20:54.486Z,5.62
2019-02-12T06:23:22.674Z,5.63
2019-02-12T06:25:50.873Z,5.65
2019-02-12T06:28:19.075Z,5.63
2019-02-12T06:30:47.280Z,5.62
2019-02-12T06:33:15.462Z,5.59
2019-02-12T06:35:43.650Z,5.53
2019-02-12T06:38:12.014Z,5.57
2019-02-12T06:40:40.197Z,5.74
2019-02-12T06:43:08.461Z,5.89
2019-02-12T06:45:36.651Z,6.21
2019-02-12T06:48:04.830Z,6.46
2019-02-12T06:50:33.035Z,6.67
2019-02-12T06:53:01.244Z,6.82
2019-02-12T06:55:29.420Z,6.85
2019-02-12T06:57:57.622Z,6.98
2019-02-12T07:00:25.797Z,7.04
2019-02-12T07:03:13.988Z,7.14
2019-02-12T07:06:00.590Z,7.26
2019-02-12T07:08:40.780Z,7.26
2019-02-12T07:11:27.211Z,7.18
2019-02-12T07:14:10.215Z,6.95
2019-02-12T07:17:13.747Z,6.78
2019-02-12T07:19:47.700Z,6.62
2019-02-12T07:22:47.822Z,6.41
2019-02-12T07:25:25.076Z,6.25
2019-02-12T07:28:08.424Z,6.14
2019-02-12T07:31:08.792Z,6.08
2019-02-12T07:33:55.255Z,6.07
2019-02-12T07:36:40.749Z,6.11
2019-02-12T07:39:38.526Z,6.15
2019-02-12T07:42:31.218Z,6.15
2019-02-12T07:45:02.671Z,6.21
2019-02-12T07:47:50.380Z,6.23
2019-02-12T07:50:30.503Z,6.16
2019-02-12T07:53:10.939Z,6.20
2019-02-12T07:55:58.649Z,6.35
2019-02-12T07:58:46.497Z,6.46
2019-02-12T08:01:23.681Z,6.54
2019-02-12T08:04:03.655Z,6.71
2019-02-12T08:06:54.271Z,6.86
2019-02-12T08:10:00.749Z,6.93
2019-02-12T08:12:41.098Z,7.00
2019-02-12T08:15:15.305Z,7.06
2019-02-12T08:18:04.850Z,7.09
2019-02-12T08:20:55.778Z,7.20
2019-02-12T08:23:41.255Z,7.30
2019-02-12T08:26:17.627Z,7.43
2019-02-12T08:29:10.261Z,7.63
2019-02-12T08:31:47.275Z,7.71
2019-02-12T08:34:24.277Z,7.83
2019-02-12T08:36:55.726Z,7.92
2019-02-12T08:39:33.087Z,8.01
2019-02-12T08:42:15.911Z,7.98
2019-02-12T08:44:50.089Z,7.94
2019-02-12T08:47:40.111Z,8.03
2019-02-12T08:50:23.168Z,8.18
2019-02-12T08:53:00.425Z,8.30
2019-02-12T08:55:49.726Z,8.47
2019-02-12T08:58:24.149Z,8.54
2019-02-12T09:00:58.583Z,8.63
2019-02-12T09:03:42.015Z,8.69
2019-02-12T09:06:13.480Z,8.72
2019-02-12T09:08:50.443Z,8.73
2019-02-12T09:11:36.916Z,8.65
2019-02-12T09:14:13.627Z,8.62
2019-02-12T09:17:06.302Z,8.64
2019-02-12T09:19:55.637Z,8.72
2019-02-12T09:22:38.970Z,8.89
2019-02-12T09:25:10.449Z,8.94
2019-02-12T09:28:02.935Z,8.95
2019-02-12T09:30:49.453Z,8.95
2019-02-12T09:33:46.502Z,8.91
2019-02-12T09:36:52.765Z,8.94
2019-02-12T09:39:26.979Z,9.07
2019-02-12T09:42:09.756Z,9.17
2019-02-12T09:44:57.990Z,9.05
2019-02-12T09:47:46.492Z,8.84
2019-02-12T09:50:32.452Z,8.64
2019-02-12T09:53:26.342Z,8.41
2019-02-12T09:56:26.755Z,8.19
2019-02-12T09:59:09.959Z,7.94
2019-02-12T10:01:44.064Z,7.75
2019-02-12T10:04:18.188Z,7.68
2019-02-12T10:06:49.644Z,7.65
2019-02-12T10:09:33.284Z,7.68
2019-02-12T10:12:07.737Z,7.71
2019-02-12T10:14:42.020Z,7.75
2019-02-12T10:17:16.124Z,7.96
2019-02-12T10:20:02.577Z,8.32
2019-02-12T10:22:43.132Z,8.68
2019-02-12T10:25:14.724Z,8.86
2019-02-12T10:28:02.732Z,9.15
2019-02-12T10:30:36.707Z,9.51
2019-02-12T10:33:04.928Z,9.84
2019-02-12T10:35:33.139Z,10.21
2019-02-12T10:38:01.575Z,10.41
2019-02-12T10:40:29.740Z,10.63
2019-02-12T10:42:57.961Z,10.96
2019-02-12T10:45:26.187Z,11.27
2019-02-12T10:47:54.397Z,11.50
2019-02-12T10:50:22.581Z,11.62
2019-02-12T10:52:50.928Z,11.77
2019-02-12T10:55:19.147Z,11.96
2019-02-12T10:57:47.339Z,12.05
2019-02-12T11:00:15.543Z,11.93
2019-02-12T11:02:43.754Z,12.01
2019-02-12T11:05:11.940Z,12.08
2019-02-12T11:07:40.168Z,12.16
2019-02-12T11:10:11.703Z,12.40
2019-02-12T11:12:39.913Z,12.50
2019-02-12T11:15:09.658Z,12.37
2019-02-12T11:17:38.087Z,12.39
2019-02-12T11:20:09.457Z,12.41
2019-02-12T11:22:37.866Z,12.59
2019-02-12T11:25:10.190Z,12.58
2019-02-12T11:27:38.396Z,12.45
2019-02-12T11:30:12.643Z,12.33
2019-02-12T11:32:40.838Z,12.50
2019-02-12T11:35:12.478Z,12.88
2019-02-12T11:37:40.685Z,13.29
2019-02-12T11:40:13.523Z,13.56
2019-02-12T11:42:41.777Z,13.49
2019-02-12T11:45:12.427Z,13.40
2019-02-12T11:47:40.718Z,13.37
2019-02-12T11:50:09.944Z,13.19
2019-02-12T11:52:38.166Z,13.07
2019-02-12T11:55:09.256Z,13.00
2019-02-12T11:57:37.469Z,12.82
2019-02-12T12:00:09.275Z,12.75
2019-02-12T12:02:42.097Z,12.77
2019-02-12T12:05:08.304Z,12.75
2019-02-12T12:07:36.514Z,12.72
2019-02-12T12:10:08.632Z,12.76
2019-02-12T12:12:36.835Z,12.62
2019-02-12T12:15:08.062Z,12.65
2019-02-12T12:17:36.268Z,12.67
2019-02-12T12:20:07.619Z,12.57
2019-02-12T12:22:35.812Z,12.31
2019-02-12T12:25:05.461Z,12.23
2019-02-12T12:27:33.673Z,12.29
2019-02-12T12:30:01.878Z,12.46
2019-02-12T12:32:30.054Z,12.57
2019-02-12T12:34:59.206Z,12.60
2019-02-12T12:37:27.542Z,12.56
2019-02-12T12:39:55.739Z,12.47
2019-02-12T12:42:23.924Z,12.33
2019-02-12T12:44:52.353Z,12.49
2019-02-12T12:47:20.588Z,12.55
2019-02-12T12:49:48.792Z,12.27
2019-02-12T12:52:16.996Z,11.87
2019-02-12T12:54:45.186Z,11.61
2019-02-12T12:57:13.367Z,11.65
2019-02-12T12:59:41.566Z,11.46
2019-02-12T13:02:09.750Z,11.39
2019-02-12T13:04:37.948Z,11.34
2019-02-12T13:07:06.138Z,11.16
2019-02-12T13:09:34.342Z,11.01
2019-02-12T13:12:02.593Z,10.70
2019-02-12T13:14:31.158Z,10.61
2019-02-12T13:16:59.385Z,10.51
2019-02-12T13:19:27.581Z,10.55
2019-02-12T13:21:55.797Z,10.69
2019-02-12T13:24:23.990Z,10.83
2019-02-12T13:26:52.184Z,10.88
2019-02-12T13:29:20.382Z,11.05
2019-02-12T13:31:48.615Z,11.24
2019-02-12T13:34:16.814Z,11.20
2019-02-12T13:36:45.004Z,11.16
2019-02-12T13:39:13.226Z,11.12
2019-02-12T13:41:41.430Z,10.97
2019-02-12T13:44:09.615Z,10.75
2019-02-12T13:46:37.823Z,10.62
2019-02-12T13:49:06.010Z,10.63
2019-02-12T13:51:34.209Z,10.67
2019-02-12T13:54:02.399Z,10.76
2019-02-12T13:56:30.599Z,10.83
2019-02-12T13:58:58.788Z,10.78
2019-02-12T14:01:27.018Z,10.66
2019-02-12T14:03:55.200Z,10.52
2019-02-12T14:06:23.406Z,10.44
2019-02-12T14:08:51.615Z,10.33
2019-02-12T14:11:19.814Z,10.36
2019-02-12T14:13:48.004Z,10.42
2019-02-12T14:16:16.213Z,10.42
2019-02-12T14:18:44.401Z,10.42
2019-02-12T14:21:12.629Z,10.46
2019-02-12T14:23:40.818Z,10.50
2019-02-12T14:26:09.024Z,10.50
2019-02-12T14:28:37.214Z,10.47
2019-02-12T14:31:05.414Z,10.46
2019-02-12T14:33:33.619Z,10.40
2019-02-12T14:36:01.817Z,10.32
2019-02-12T14:38:29.999Z,10.23
2019-02-12T14:40:58.209Z,10.10
2019-02-12T14:43:26.391Z,10.01
2019-02-12T14:45:54.589Z,9.99
2019-02-12T14:48:22.774Z,9.96
2019-02-12T14:50:50.998Z,9.96
2019-02-12T14:53:19.178Z,9.99
2019-02-12T14:55:47.410Z,10.05
2019-02-12T14:58:15.611Z,10.07
2019-02-12T15:00:43.804Z,10.03
2019-02-12T15:03:11.985Z,9.91
2019-02-12T15:05:40.206Z,9.86
2019-02-12T15:08:08.390Z,9.87
2019-02-12T15:10:36.590Z,9.93
2019-02-12T15:13:04.771Z,9.95
2019-02-12T15:15:32.957Z,9.94
2019-02-12T15:18:01.181Z,9.91
2019-02-12T15:20:29.371Z,9.90
2019-02-12T15:22:57.572Z,9.89
2019-02-12T15:25:25.756Z,9.90
2019-02-12T15:27:53.958Z,9.92
2019-02-12T15:30:22.130Z,9.89
2019-02-12T15:32:50.323Z,9.88
2019-02-12T15:35:18.522Z,9.77
2019-02-12T15:37:46.737Z,9.76
2019-02-12T15:40:17.518Z,9.81
2019-02-12T15:42:45.791Z,9.81
2019-02-12T15:45:24.476Z,9.81
2019-02-12T15:47:52.671Z,9.78
2019-02-12T15:50:20.856Z,9.78
2019-02-12T15:52:49.077Z,9.76
2019-02-12T15:55:17.254Z,9.74
2019-02-12T15:57:46.057Z,9.73
2019-02-12T16:00:18.604Z,9.74
2019-02-12T16:02:46.723Z,9.76
2019-02-12T16:05:14.978Z,9.78
2019-02-12T16:07:45.200Z,9.80
2019-02-12T16:10:19.609Z,9.77
2019-02-12T16:12:48.938Z,9.76
2019-02-12T16:15:21.160Z,9.75
2019-02-12T16:17:48.279Z,9.72
2019-02-12T16:20:16.541Z,9.70
2019-02-12T16:22:44.760Z,9.66
2019-02-12T16:25:15.373Z,9.66
2019-02-12T16:27:43.772Z,9.65
2019-02-12T16:30:22.386Z,9.67
2019-02-12T16:32:50.582Z,9.65
2019-02-12T16:35:18.840Z,9.66
2019-02-12T16:37:47.028Z,9.62
2019-02-12T16:40:16.648Z,9.56
2019-02-12T16:42:44.842Z,9.57
2019-02-12T16:45:22.079Z,9.57
2019-02-12T16:47:50.275Z,9.57
2019-02-12T16:50:18.557Z,9.54
2019-02-12T16:52:46.800Z,9.52
2019-02-12T16:55:14.999Z,9.48
2019-02-12T16:57:43.235Z,9.48
2019-02-12T17:00:13.882Z,9.44
2019-02-12T17:02:42.083Z,9.43
2019-02-12T17:05:12.005Z,9.37
2019-02-12T17:07:40.221Z,9.33
2019-02-12T17:10:10.046Z,9.30
2019-02-12T17:12:38.238Z,9.28
2019-02-12T17:15:11.126Z,9.25
2019-02-12T17:17:39.328Z,9.22
2019-02-12T17:20:10.850Z,9.22
2019-02-12T17:22:39.059Z,9.16
2019-02-12T17:25:09.586Z,9.15
2019-02-12T17:27:37.810Z,9.14
2019-02-12T17:30:11.755Z,9.12
2019-02-12T17:32:40.328Z,9.10
2019-02-12T17:35:09.248Z,9.08
2019-02-12T17:37:37.445Z,9.03
2019-02-12T17:40:08.855Z,9.01
2019-02-12T17:42:37.040Z,9.00
2019-02-12T17:45:11.225Z,9.02
2019-02-12T17:47:39.407Z,9.00
2019-02-12T17:50:10.313Z,8.94
2019-02-12T17:52:38.515Z,8.92
2019-02-12T17:55:07.970Z,8.89
2019-02-12T17:57:36.154Z,8.86
2019-02-12T18:00:11.644Z,8.85
2019-02-12T18:02:41.576Z,8.82
2019-02-12T18:05:09.898Z,8.77
2019-02-12T18:07:38.091Z,8.74
2019-02-12T18:10:08.712Z,8.72
2019-02-12T18:12:36.888Z,8.69
2019-02-12T18:15:07.724Z,8.65
2019-02-12T18:17:35.905Z,8.59
2019-02-12T18:20:05.842Z,8.55
2019-02-12T18:22:34.030Z,8.50
2019-02-12T18:25:02.266Z,8.48
2019-02-12T18:27:30.448Z,8.48
2019-02-12T18:29:58.655Z,8.45
2019-02-12T18:32:26.893Z,8.42
2019-02-12T18:34:55.076Z,8.39
2019-02-12T18:37:23.256Z,8.38
2019-02-12T18:39:51.459Z,8.35
2019-02-12T18:42:19.897Z,8.35
2019-02-12T18:44:48.058Z,8.36
2019-02-12T18:47:16.250Z,8.35
2019-02-12T18:49:44.445Z,8.32
2019-02-12T18:52:12.650Z,8.30
2019-02-12T18:54:40.853Z,8.29
2019-02-12T18:57:09.058Z,8.32
2019-02-12T18:59:37.351Z,8.30
2019-02-12T19:02:05.573Z,8.30
2019-02-12T19:04:33.809Z,8.29
2019-02-12T19:07:02.004Z,8.29
2019-02-12T19:09:30.194Z,8.30
2019-02-12T19:11:58.382Z,8.32
2019-02-12T19:14:26.738Z,8.32
2019-02-12T19:16:54.977Z,8.36
2019-02-12T19:19:23.197Z,8.32
2019-02-12T19:21:51.474Z,8.26
2019-02-12T19:24:19.660Z,8.27
2019-02-12T19:26:49.878Z,8.29
2019-02-12T19:29:17.785Z,8.31
2019-02-12T19:31:45.991Z,8.30
2019-02-12T19:34:14.171Z,8.26
2019-02-12T19:36:42.383Z,8.26
2019-02-12T19:39:10.593Z,8.24
2019-02-12T19:41:38.812Z,8.20
2019-02-12T19:44:07.007Z,8.19
2019-02-12T19:46:35.209Z,8.17
2019-02-12T19:49:03.400Z,8.13
2019-02-12T19:51:31.600Z,8.10
2019-02-12T19:53:59.861Z,8.09
2019-02-12T19:56:28.064Z,8.06
2019-02-12T19:58:56.287Z,8.00
2019-02-12T20:01:24.487Z,7.96
2019-02-12T20:03:52.673Z,7.93
2019-02-12T20:06:20.865Z,7.88
2019-02-12T20:08:49.071Z,7.91
2019-02-12T20:11:17.269Z,7.92
2019-02-12T20:13:45.467Z,7.94
2019-02-12T20:16:13.699Z,7.91
2019-02-12T20:18:42.086Z,7.91
2019-02-12T20:21:10.265Z,7.90
2019-02-12T20:23:38.484Z,7.92
2019-02-12T20:26:06.670Z,7.92
2019-02-12T20:28:34.896Z,7.94
2019-02-12T20:31:03.123Z,7.93
2019-02-12T20:33:31.334Z,7.93
2019-02-12T20:35:59.523Z,7.93
2019-02-12T20:38:27.739Z,7.92
2019-02-12T20:40:55.954Z,7.93
2019-02-12T20:43:24.208Z,7.94
2019-02-12T20:45:52.372Z,7.89
2019-02-12T20:48:20.582Z,7.87
2019-02-12T20:50:48.788Z,7.89
2019-02-12T20:53:16.981Z,7.89
2019-02-12T20:55:45.173Z,7.91
2019-02-12T20:58:13.409Z,7.95
2019-02-12T21:00:41.621Z,7.97
2019-02-12T21:03:11.130Z,7.96
2019-02-12T21:05:39.401Z,7.94
2019-02-12T21:08:07.611Z,7.94
2019-02-12T21:10:35.796Z,7.93
2019-02-12T21:13:04.002Z,7.93
2019-02-12T21:15:32.261Z,7.95
2019-02-12T21:18:00.479Z,7.96
2019-02-12T21:20:28.676Z,7.98
2019-02-12T21:22:57.287Z,7.96
2019-02-12T21:25:25.487Z,7.97
2019-02-12T21:27:53.767Z,8.00
2019-02-12T21:30:30.157Z,8.03
2019-02-12T21:32:58.350Z,8.05
2019-02-12T21:35:26.566Z,8.03
2019-02-12T21:37:54.779Z,8.05
2019-02-12T21:40:24.630Z,8.06
2019-02-12T21:42:52.812Z,8.07
2019-02-12T21:45:21.019Z,8.08
2019-02-12T21:47:49.232Z,8.08
2019-02-12T21:50:17.440Z,8.06
2019-02-12T21:52:45.615Z,8.00
2019-02-12T21:55:19.242Z,7.99
2019-02-12T21:57:47.417Z,7.98
2019-02-12T22:00:20.142Z,7.98
2019-02-12T22:02:48.328Z,7.99
2019-02-12T22:05:17.183Z,7.94
2019-02-12T22:07:45.370Z,7.92
2019-02-12T22:10:28.363Z,7.90
2019-02-12T22:12:56.575Z,7.89
2019-02-12T22:15:24.777Z,7.87
2019-02-12T22:17:52.974Z,7.88
2019-02-12T22:20:22.639Z,7.87
2019-02-12T22:22:50.856Z,7.87
2019-02-12T22:25:19.056Z,7.86
2019-02-12T22:27:47.249Z,7.87
2019-02-12T22:30:18.253Z,8.04
2019-02-12T22:32:46.510Z,8.18
2019-02-12T22:35:14.797Z,8.28
2019-02-12T22:37:42.990Z,8.39
2019-02-12T22:40:15.353Z,8.48
2019-02-12T22:42:43.567Z,8.50
2019-02-12T22:45:25.057Z,8.42
2019-02-12T22:47:53.248Z,8.31
2019-02-12T22:50:21.466Z,8.19
2019-02-12T22:52:49.666Z,8.10
2019-02-12T22:55:17.883Z,8.04
2019-02-12T22:57:49.168Z,8.01
2019-02-12T23:00:26.907Z,7.98
2019-02-12T23:02:55.124Z,7.97
2019-02-12T23:05:23.317Z,7.93
2019-02-12T23:07:51.524Z,7.91
2019-02-12T23:10:19.751Z,7.94
2019-02-12T23:12:47.982Z,7.96
2019-02-12T23:15:16.190Z,7.94
2019-02-12T23:17:44.390Z,7.96
2019-02-12T23:20:12.582Z,7.94
2019-02-12T23:22:40.789Z,7.97
2019-02-12T23:25:08.977Z,7.97
2019-02-12T23:27:37.188Z,7.95
2019-02-12T23:30:08.387Z,7.96
2019-02-12T23:32:36.618Z,7.93
2019-02-12T23:35:05.677Z,7.94
2019-02-12T23:37:33.879Z,7.95
2019-02-12T23:40:02.064Z,7.96
2019-02-12T23:42:30.299Z,7.96
2019-02-12T23:44:58.517Z,7.95
2019-02-12T23:47:26.734Z,7.98
2019-02-12T23:49:54.928Z,7.98
2019-02-12T23:52:23.204Z,7.97
2019-02-12T23:54:51.414Z,7.95
2019-02-12T23:57:19.624Z,7.97
2019-02-12T23:59:47.839Z,7.99
